Map

Track Data

SID SEASON NUMBER BASIN SUBBASIN NAME ISO_TIME NATURE LAT LON WMO_WIND WMO_PRES WMO_AGENCY TRACK_TYPE DIST2LAND LANDFALL IFLAG USA_AGENCY USA_ATCF_ID USA_LAT USA_LON USA_RECORD USA_STATUS USA_WIND USA_PRES USA_SSHS USA_R34_NE USA_R34_SE USA_R34_SW USA_R34_NW USA_R50_NE USA_R50_SE USA_R50_SW USA_R50_NW USA_R64_NE USA_R64_SE USA_R64_SW USA_R64_NW USA_POCI USA_ROCI USA_RMW USA_EYE TOKYO_LAT TOKYO_LON TOKYO_GRADE TOKYO_WIND TOKYO_PRES TOKYO_R50_DIR TOKYO_R50_LONG TOKYO_R50_SHORT TOKYO_R30_DIR TOKYO_R30_LONG TOKYO_R30_SHORT TOKYO_LAND CMA_LAT CMA_LON CMA_CAT CMA_WIND CMA_PRES HKO_LAT HKO_LON HKO_CAT HKO_WIND HKO_PRES NEWDELHI_LAT NEWDELHI_LON NEWDELHI_GRADE NEWDELHI_WIND NEWDELHI_PRES NEWDELHI_CI NEWDELHI_DP NEWDELHI_POCI REUNION_LAT REUNION_LON REUNION_TYPE REUNION_WIND REUNION_PRES REUNION_TNUM REUNION_CI REUNION_RMW REUNION_R34_NE REUNION_R34_SE REUNION_R34_SW REUNION_R34_NW REUNION_R50_NE REUNION_R50_SE REUNION_R50_SW REUNION_R50_NW REUNION_R64_NE REUNION_R64_SE REUNION_R64_SW REUNION_R64_NW BOM_LAT BOM_LON BOM_TYPE BOM_WIND BOM_PRES BOM_TNUM BOM_CI BOM_RMW BOM_R34_NE BOM_R34_SE BOM_R34_SW BOM_R34_NW BOM_R50_NE BOM_R50_SE BOM_R50_SW BOM_R50_NW BOM_R64_NE BOM_R64_SE BOM_R64_SW BOM_R64_NW BOM_ROCI BOM_POCI BOM_EYE BOM_POS_METHOD BOM_PRES_METHOD NADI_LAT NADI_LON NADI_CAT NADI_WIND NADI_PRES WELLINGTON_LAT WELLINGTON_LON WELLINGTON_WIND WELLINGTON_PRES DS824_LAT DS824_LON DS824_STAGE DS824_WIND DS824_PRES TD9636_LAT TD9636_LON TD9636_STAGE TD9636_WIND TD9636_PRES TD9635_LAT TD9635_LON TD9635_WIND TD9635_PRES TD9635_ROCI NEUMANN_LAT NEUMANN_LON NEUMANN_CLASS NEUMANN_WIND NEUMANN_PRES MLC_LAT MLC_LON MLC_CLASS MLC_WIND MLC_PRES USA_GUST BOM_GUST BOM_GUST_PER REUNION_GUST REUNION_GUST_PER USA_SEAHGT USA_SEARAD_NE USA_SEARAD_SE USA_SEARAD_SW USA_SEARAD_NW STORM_SPEED STORM_DIR
1980227N13325 1980 62 NA NA BONNIE 1980-08-14 00:00:00 TS 12.7000 -35.5000 25 1010 hurdat_atl main 1811 1808 O_____________ hurdat_atl AL061980 12.7000 -35.5000 TD 25 1010 -1 13 302
1980227N13325 1980 62 NA NA BONNIE 1980-08-14 03:00:00 TS 13.0553 -36.0774 main 1838 1836 P_____________ AL061980 13.0553 -36.0774 TD 27 1009 -1 13 307
1980227N13325 1980 62 NA NA BONNIE 1980-08-14 06:00:00 TS 13.5000 -36.6000 30 1008 hurdat_atl main 1871 1871 O_____________ hurdat_atl AL061980 13.5000 -36.6000 TD 30 1008 -1 14 318
1980227N13325 1980 62 NA NA BONNIE 1980-08-14 09:00:00 TS 14.0849 -37.0174 main 1914 1911 P_____________ AL061980 14.0849 -37.0174 TD 32 1006 -1 14 331
1980227N13325 1980 62 NA NA BONNIE 1980-08-14 12:00:00 TS 14.7000 -37.3000 35 1005 hurdat_atl main 1926 1926 O_____________ hurdat_atl AL061980 14.7000 -37.3000 TS 35 1005 0 12 340
1980227N13325 1980 62 NA NA BONNIE 1980-08-14 15:00:00 TS 15.2149 -37.4304 main 1951 1951 P_____________ AL061980 15.2149 -37.4304 TS 40 1002 0 10 349
1980227N13325 1980 62 NA NA BONNIE 1980-08-14 18:00:00 TS 15.7000 -37.5000 45 1000 hurdat_atl main 1977 1977 O_____________ hurdat_atl AL061980 15.7000 -37.5000 TS 45 1000 0 10 347
1980227N13325 1980 62 NA NA BONNIE 1980-08-14 21:00:00 TS 16.2000 -37.6574 main 1996 1996 P_____________ AL061980 16.2000 -37.6574 TS 45 1000 0 10 344
1980227N13325 1980 62 NA NA BONNIE 1980-08-15 00:00:00 TS 16.7000 -37.8000 45 1000 hurdat_atl main 2025 2025 O_____________ hurdat_atl AL061980 16.7000 -37.8000 TS 45 1000 0 10 349
1980227N13325 1980 62 NA NA BONNIE 1980-08-15 03:00:00 TS 17.1925 -37.8577 main 2054 2054 P_____________ AL061980 17.1925 -37.8577 TS 45 1000 0 10 354
1980227N13325 1980 62 NA NA BONNIE 1980-08-15 06:00:00 TS 17.7000 -37.9000 45 1000 hurdat_atl main 2093 2093 O_____________ hurdat_atl AL061980 17.7000 -37.9000 TS 45 1000 0 10 354
1980227N13325 1980 62 NA NA BONNIE 1980-08-15 09:00:00 TS 18.2050 -37.9778 main 2125 2125 P_____________ AL061980 18.2050 -37.9778 TS 45 1000 0 11 350
1980227N13325 1980 62 NA NA BONNIE 1980-08-15 12:00:00 TS 18.8000 -38.1000 45 1000 hurdat_atl main 2166 2166 O_____________ hurdat_atl AL061980 18.8000 -38.1000 TS 45 1000 0 14 347
1980227N13325 1980 62 NA NA BONNIE 1980-08-15 15:00:00 TS 19.5626 -38.2997 main 2214 2213 P_____________ AL061980 19.5626 -38.2997 TS 50 997 0 17 347
1980227N13325 1980 62 NA NA BONNIE 1980-08-15 18:00:00 TS 20.4000 -38.5000 55 995 hurdat_atl main 2225 2223 O_____________ hurdat_atl AL061980 20.4000 -38.5000 TS 55 995 0 17 350
1980227N13325 1980 62 NA NA BONNIE 1980-08-15 21:00:00 TS 21.1925 -38.6154 main 2230 2228 P_____________ AL061980 21.1925 -38.6154 TS 65 990 1 16 353
1980227N13325 1980 62 NA NA BONNIE 1980-08-16 00:00:00 TS 22.0000 -38.7000 75 985 hurdat_atl main 2236 2234 O_____________ hurdat_atl AL061980 22.0000 -38.7000 HU 75 985 1 17 354
1980227N13325 1980 62 NA NA BONNIE 1980-08-16 03:00:00 TS 22.8875 -38.8000 main 2242 2242 P_____________ AL061980 22.8875 -38.8000 HU 80 980 1 17 354
1980227N13325 1980 62 NA NA BONNIE 1980-08-16 06:00:00 TS 23.7000 -38.9000 85 975 hurdat_atl main 2252 2250 O_____________ hurdat_atl AL061980 23.7000 -38.9000 HU 85 975 2 14 353
1980227N13325 1980 62 NA NA BONNIE 1980-08-16 09:00:00 TS 24.3024 -38.9928 main 2251 2242 P_____________ AL061980 24.3024 -38.9928 HU 85 975 2 11 351
1980227N13325 1980 62 NA NA BONNIE 1980-08-16 12:00:00 TS 24.8000 -39.1000 85 975 hurdat_atl main 2246 2240 O_____________ hurdat_atl AL061980 24.8000 -39.1000 HU 85 975 2 10 347
1980227N13325 1980 62 NA NA BONNIE 1980-08-16 15:00:00 TS 25.2925 -39.2426 main 2242 2242 P_____________ AL061980 25.2925 -39.2426 HU 85 975 2 10 345
1980227N13325 1980 62 NA NA BONNIE 1980-08-16 18:00:00 TS 25.8000 -39.4000 85 975 hurdat_atl main 2249 2245 O_____________ hurdat_atl AL061980 25.8000 -39.4000 HU 85 975 2 11 346
1980227N13325 1980 62 NA NA BONNIE 1980-08-16 21:00:00 TS 26.4000 -39.5500 main 2256 2248 P_____________ AL061980 26.4000 -39.5500 HU 80 980 1 12 347
1980227N13325 1980 62 NA NA BONNIE 1980-08-17 00:00:00 TS 27.0000 -39.7000 75 985 hurdat_atl main 2254 2251 O_____________ hurdat_atl AL061980 27.0000 -39.7000 HU 75 985 1 12 346
1980227N13325 1980 62 NA NA BONNIE 1980-08-17 03:00:00 TS 27.5150 -39.8502 main 2265 2261 P_____________ AL061980 27.5150 -39.8502 HU 70 987 1 10 345
1980227N13325 1980 62 NA NA BONNIE 1980-08-17 06:00:00 TS 28.0000 -40.0000 65 990 hurdat_atl main 2268 2267 O_____________ hurdat_atl AL061980 28.0000 -40.0000 HU 65 990 1 10 345
1980227N13325 1980 62 NA NA BONNIE 1980-08-17 09:00:00 TS 28.5000 -40.1575 main 2282 2255 P_____________ AL061980 28.5000 -40.1575 HU 65 990 1 10 345
1980227N13325 1980 62 NA NA BONNIE 1980-08-17 12:00:00 TS 29.0000 -40.3000 65 990 hurdat_atl main 2255 2201 O_____________ hurdat_atl AL061980 29.0000 -40.3000 HU 65 990 1 10 347
1980227N13325 1980 62 NA NA BONNIE 1980-08-17 15:00:00 TS 29.4925 -40.4225 main 2201 2147 P_____________ AL061980 29.4925 -40.4225 HU 65 990 1 10 350
1980227N13325 1980 62 NA NA BONNIE 1980-08-17 18:00:00 TS 30.0000 -40.5000 65 990 hurdat_atl main 2147 2097 O_____________ hurdat_atl AL061980 30.0000 -40.5000 HU 65 990 1 10 356
1980227N13325 1980 62 NA NA BONNIE 1980-08-17 21:00:00 TS 30.5275 -40.5152 main 2097 2038 P_____________ AL061980 30.5275 -40.5152 HU 65 990 1 11 0
1980227N13325 1980 62 NA NA BONNIE 1980-08-18 00:00:00 TS 31.1000 -40.5000 65 990 hurdat_atl main 2038 1980 O_____________ hurdat_atl AL061980 31.1000 -40.5000 HU 65 990 1 12 0
1980227N13325 1980 62 NA NA BONNIE 1980-08-18 03:00:00 TS 31.7125 -40.5000 main 1980 1912 P_____________ AL061980 31.7125 -40.5000 HU 65 990 1 13 1
1980227N13325 1980 62 NA NA BONNIE 1980-08-18 06:00:00 TS 32.4000 -40.5000 65 990 hurdat_atl main 1912 1845 O_____________ hurdat_atl AL061980 32.4000 -40.5000 HU 65 990 1 14 0
1980227N13325 1980 62 NA NA BONNIE 1980-08-18 09:00:00 TS 33.1550 -40.5000 main 1836 1761 P_____________ AL061980 33.1550 -40.5000 HU 65 990 1 16 0
1980227N13325 1980 62 NA NA BONNIE 1980-08-18 12:00:00 TS 34.0000 -40.5000 65 990 hurdat_atl main 1761 1687 O_____________ hurdat_atl AL061980 34.0000 -40.5000 HU 65 990 1 17 359
1980227N13325 1980 62 NA NA BONNIE 1980-08-18 15:00:00 TS 34.8975 -40.5216 main 1678 1597 P_____________ AL061980 34.8975 -40.5216 HU 65 990 1 19 0
1980227N13325 1980 62 NA NA BONNIE 1980-08-18 18:00:00 TS 35.9000 -40.5000 65 990 hurdat_atl main 1588 1507 O_____________ hurdat_atl AL061980 35.9000 -40.5000 HU 65 990 1 20 3
1980227N13325 1980 62 NA NA BONNIE 1980-08-18 21:00:00 TS 36.9153 -40.3793 main 1507 1420 P_____________ AL061980 36.9153 -40.3793 HU 65 990 1 23 6
1980227N13325 1980 62 NA NA BONNIE 1980-08-19 00:00:00 TS 38.2000 -40.2000 65 990 hurdat_atl main 1412 1296 O_____________ hurdat_atl AL061980 38.2000 -40.2000 HU 65 990 1 30 5
1980227N13325 1980 62 NA NA BONNIE 1980-08-19 03:00:00 TS 39.8776 -40.0743 main 1289 1182 P_____________ AL061980 39.8776 -40.0743 HU 65 990 1 37 5
1980227N13325 1980 62 NA NA BONNIE 1980-08-19 06:00:00 TS 41.9000 -39.8000 65 990 hurdat_atl main 1176 1097 O_____________ hurdat_atl AL061980 41.9000 -39.8000 HU 65 990 1 43 8
1980227N13325 1980 62 NA NA BONNIE 1980-08-19 09:00:00 TS 44.1395 -39.2448 main 1099 1070 P_____________ AL061980 44.1395 -39.2448 HU 65 992 1 47 12
1980227N13325 1980 62 NA NA BONNIE 1980-08-19 12:00:00 TS 46.5000 -38.4000 65 995 hurdat_atl main 1076 1076 O_____________ hurdat_atl AL061980 46.5000 -38.4000 HU 65 995 1 48 16
1980227N13325 1980 62 NA NA BONNIE 1980-08-19 15:00:00 TS 48.7851 -37.2994 main 1137 1108 P_____________ AL061980 48.7851 -37.2994 HU 55 997 0 48 19
1980227N13325 1980 62 NA NA BONNIE 1980-08-19 18:00:00 ET 51.0000 -36.0000 45 1000 hurdat_atl main 1100 O_____________ hurdat_atl AL061980 51.0000 -36.0000 EX 45 1000 -4 47 20

About IBTrACS Database

This database is a web-friendly format of International Best Track Archive for Climate Stewardship (IBTrACS), a global best track data archive curated by NOAA dating back to 1842.

Updated: 2021-10-08